Time;durP1;ratioP1;P1;durP2;ratioP2;P2;SDS_P1;SDS_P2;PMS_P1;PMS_P2;Temp;Humidity;BMP_temperature;BMP_pressure;BME280_temperature;BME280_humidity;BME280_pressure;Samples;Min_cycle;Max_cycle;Signal;HPM_P1;HPM_P2
2023/01/31 00:00:12;;;;;;;1.42;1.33;;;15.80;64.50;;;;;;5054240;28;20056;-21
2023/01/31 00:02:38;;;;;;;1.90;1.65;;;15.90;64.60;;;;;;5039987;28;20048;-26
2023/01/31 00:05:03;;;;;;;1.50;1.40;;;15.90;64.60;;;;;;5048138;28;20045;-30
2023/01/31 00:07:29;;;;;;;1.55;1.45;;;15.90;64.60;;;;;;5062731;28;20072;-30
2023/01/31 00:09:54;;;;;;;1.40;1.30;;;16.00;64.30;;;;;;5050438;28;20528;-28
2023/01/31 00:12:20;;;;;;;1.90;1.80;;;16.00;64.30;;;;;;5051547;28;20052;-27
2023/01/31 00:14:46;;;;;;;1.70;1.60;;;16.00;64.10;;;;;;5048352;28;20530;-27
2023/01/31 00:17:11;;;;;;;1.90;1.80;;;15.90;64.30;;;;;;5059025;28;20105;-29
2023/01/31 00:19:37;;;;;;;2.03;1.50;;;15.90;64.30;;;;;;5048267;28;20524;-30
2023/01/31 00:22:02;;;;;;;1.50;1.40;;;15.90;64.30;;;;;;5061904;28;20068;-25
2023/01/31 00:24:28;;;;;;;1.55;1.45;;;15.80;64.70;;;;;;5046801;28;20041;-26
2023/01/31 00:26:55;;;;;;;1.45;1.35;;;15.80;64.40;;;;;;5048390;28;20040;-28
2023/01/31 00:29:24;;;;;;;1.77;1.67;;;15.90;64.50;;;;;;5046804;28;20037;-29
2023/01/31 00:31:49;;;;;;;1.45;1.35;;;15.80;64.40;;;;;;5060239;28;20598;-27
2023/01/31 00:34:15;;;;;;;1.55;1.45;;;15.90;64.60;;;;;;5059767;28;20044;-27
2023/01/31 00:36:41;;;;;;;1.30;1.20;;;15.80;64.20;;;;;;5052949;28;20048;-25
2023/01/31 00:39:06;;;;;;;1.67;1.55;;;15.80;64.50;;;;;;5053336;28;20045;-29
2023/01/31 00:41:32;;;;;;;1.50;1.40;;;15.90;64.40;;;;;;5056377;28;20055;-26
2023/01/31 00:43:58;;;;;;;1.60;1.50;;;15.80;64.50;;;;;;5058570;28;20097;-27
2023/01/31 00:46:24;;;;;;;1.35;1.25;;;15.70;64.70;;;;;;5044693;28;20462;-29
2023/01/31 00:48:50;;;;;;;1.67;1.58;;;15.70;64.80;;;;;;5062103;28;20052;-33
2023/01/31 00:51:15;;;;;;;1.52;1.25;;;15.70;64.80;;;;;;5058945;28;20033;-24
2023/01/31 00:53:41;;;;;;;1.70;1.60;;;15.70;64.90;;;;;;5064922;28;20045;-32
2023/01/31 00:56:11;;;;;;;1.63;1.52;;;15.70;64.80;;;;;;5045802;28;20081;-28
2023/01/31 00:58:38;;;;;;;1.60;1.50;;;15.60;64.90;;;;;;5049305;28;20110;-26
2023/01/31 01:01:11;;;;;;;1.50;1.40;;;15.60;64.80;;;;;;5061041;28;20471;-26
2023/01/31 01:03:37;;;;;;;1.75;1.65;;;15.70;64.70;;;;;;5059940;28;20071;-26
2023/01/31 01:06:02;;;;;;;1.33;1.20;;;15.80;64.40;;;;;;5053893;28;20512;-25
2023/01/31 01:08:28;;;;;;;1.25;1.20;;;15.70;64.40;;;;;;5047627;28;20041;-25
2023/01/31 01:10:54;;;;;;;1.48;1.38;;;15.70;64.40;;;;;;5051766;28;20068;-25
2023/01/31 01:13:20;;;;;;;1.70;1.60;;;15.70;64.50;;;;;;5063386;28;20483;-28
2023/01/31 01:15:45;;;;;;;3.00;1.00;;;15.80;64.40;;;;;;5044472;28;20102;-25
2023/01/31 01:18:11;;;;;;;1.20;1.10;;;15.70;64.40;;;;;;5048203;28;20056;-30
2023/01/31 01:20:36;;;;;;;1.20;1.10;;;15.60;64.50;;;;;;5046497;28;20140;-25
2023/01/31 01:23:02;;;;;;;1.40;1.30;;;15.60;64.60;;;;;;5048776;28;20405;-28
2023/01/31 01:25:28;;;;;;;1.33;1.23;;;15.60;64.70;;;;;;5060979;28;20064;-26
2023/01/31 01:27:53;;;;;;;1.27;1.10;;;15.70;64.70;;;;;;5060121;28;20056;-32
2023/01/31 01:30:20;;;;;;;1.50;1.40;;;15.60;64.50;;;;;;5045960;28;20052;-25
2023/01/31 01:32:45;;;;;;;1.40;1.30;;;15.60;64.90;;;;;;5044053;28;20041;-29
2023/01/31 01:35:11;;;;;;;1.50;1.40;;;15.50;64.70;;;;;;5046736;28;20397;-29
2023/01/31 01:37:37;;;;;;;1.33;1.23;;;15.60;64.70;;;;;;5044292;28;20244;-25
2023/01/31 01:40:02;;;;;;;1.17;0.93;;;15.60;64.60;;;;;;5044127;28;20045;-27
2023/01/31 01:42:29;;;;;;;1.30;1.20;;;15.60;64.80;;;;;;5064586;28;20511;-26
2023/01/31 01:44:59;;;;;;;1.45;1.35;;;15.50;64.90;;;;;;5052977;28;20056;-26
2023/01/31 01:47:33;;;;;;;1.42;1.33;;;15.50;64.90;;;;;;5049755;28;20037;-30
2023/01/31 01:50:00;;;;;;;1.38;1.27;;;15.50;64.90;;;;;;5049131;28;20041;-25
2023/01/31 01:52:27;;;;;;;1.23;1.13;;;15.50;65.00;;;;;;5063176;28;20143;-30
2023/01/31 01:54:56;;;;;;;1.20;1.10;;;15.50;64.90;;;;;;5051851;28;20048;-26
2023/01/31 01:57:26;;;;;;;0.93;0.93;;;15.50;64.90;;;;;;5056749;28;20492;-27
2023/01/31 01:59:57;;;;;;;1.20;1.10;;;15.50;64.90;;;;;;5043927;28;20055;-25
2023/01/31 02:02:23;;;;;;;1.08;1.08;;;15.50;65.00;;;;;;5052181;28;20039;-33
2023/01/31 02:04:48;;;;;;;1.17;1.08;;;15.40;64.90;;;;;;5066150;28;20041;-37
2023/01/31 02:07:14;;;;;;;1.52;1.42;;;15.40;65.00;;;;;;5054932;28;20495;-29
2023/01/31 02:10:03;;;;;;;1.10;1.10;;;15.40;65.00;;;;;;5053933;28;20083;-30
2023/01/31 02:12:29;;;;;;;1.20;1.10;;;15.40;65.00;;;;;;5083111;28;20530;-28
2023/01/31 02:14:55;;;;;;;0.93;0.93;;;15.40;65.00;;;;;;5053021;28;20062;-29
2023/01/31 02:17:20;;;;;;;1.10;1.00;;;15.50;65.10;;;;;;5049473;28;20086;-26
2023/01/31 02:20:07;;;;;;;1.00;1.00;;;15.40;64.90;;;;;;5049155;28;20044;-28
2023/01/31 02:22:41;;;;;;;1.00;1.00;;;15.40;65.00;;;;;;5053566;28;20132;-26
2023/01/31 02:25:45;;;;;;;0.90;0.90;;;15.40;65.00;;;;;;5039367;28;20037;-29
2023/01/31 02:28:44;;;;;;;1.42;1.05;;;15.40;65.00;;;;;;5059706;28;20043;-26
2023/01/31 02:31:21;;;;;;;0.90;0.90;;;15.40;65.00;;;;;;5050583;28;20032;-28
2023/01/31 02:34:04;;;;;;;0.70;0.70;;;15.40;65.10;;;;;;5043786;28;20106;-27
2023/01/31 02:36:47;;;;;;;0.80;0.80;;;15.40;65.00;;;;;;5040587;28;20059;-25
2023/01/31 02:39:40;;;;;;;1.10;1.00;;;15.40;64.90;;;;;;5045739;28;20124;-29
2023/01/31 02:42:16;;;;;;;0.95;0.95;;;15.40;65.00;;;;;;5057207;28;20064;-26
2023/01/31 02:44:58;;;;;;;0.80;0.80;;;15.40;65.10;;;;;;5037249;28;20145;-27
2023/01/31 02:47:26;;;;;;;1.00;0.90;;;15.40;65.00;;;;;;5067697;28;20044;-28
2023/01/31 02:49:59;;;;;;;1.10;1.00;;;15.40;65.00;;;;;;5053450;28;20072;-29
2023/01/31 02:52:31;;;;;;;1.00;1.00;;;15.40;64.80;;;;;;5079760;28;20036;-27
2023/01/31 02:58:02;;;;;;;0.77;0.77;;;15.40;64.90;;;;;;5057121;28;20055;-36
2023/01/31 03:00:28;;;;;;;1.05;0.93;;;15.40;64.90;;;;;;5079539;28;20036;-28
2023/01/31 03:02:55;;;;;;;1.40;1.05;;;15.40;64.70;;;;;;5060654;28;20044;-30
2023/01/31 03:05:21;;;;;;;1.05;1.00;;;15.40;64.60;;;;;;5062857;28;20121;-29
2023/01/31 03:07:54;;;;;;;0.90;0.90;;;15.40;64.80;;;;;;5049194;28;20519;-28
2023/01/31 03:10:40;;;;;;;0.85;0.85;;;15.40;64.60;;;;;;5054363;28;20461;-28
2023/01/31 03:13:06;;;;;;;1.00;0.90;;;15.50;64.60;;;;;;5042637;28;20417;-32
2023/01/31 03:18:30;;;;;;;0.93;0.93;;;15.40;64.80;;;;;;5054340;28;20465;-27
2023/01/31 03:21:17;;;;;;;0.80;0.80;;;15.40;64.60;;;;;;5041599;28;20048;-26
2023/01/31 03:23:44;;;;;;;0.98;0.88;;;15.40;64.70;;;;;;5054517;28;20032;-29
2023/01/31 03:26:10;;;;;;;0.98;0.98;;;15.40;64.70;;;;;;5049531;28;20476;-25
2023/01/31 03:28:36;;;;;;;0.88;0.88;;;15.50;64.50;;;;;;5042392;28;20132;-26
2023/01/31 03:31:22;;;;;;;0.98;0.98;;;15.40;64.50;;;;;;5048419;28;20040;-25
2023/01/31 03:34:00;;;;;;;0.60;0.60;;;15.40;64.60;;;;;;5045559;28;20044;-29
2023/01/31 03:36:38;;;;;;;0.80;0.80;;;15.40;64.60;;;;;;5061848;28;20408;-25
2023/01/31 03:39:34;;;;;;;0.82;0.70;;;15.30;65.50;;;;;;5057372;28;20047;-27
2023/01/31 03:42:22;;;;;;;0.93;0.90;;;15.30;64.50;;;;;;5043899;28;20064;-27
2023/01/31 03:45:06;;;;;;;0.88;0.88;;;15.40;64.50;;;;;;5059602;28;20041;-27
2023/01/31 03:47:36;;;;;;;0.80;0.80;;;15.30;64.70;;;;;;5039087;28;20078;-28
2023/01/31 03:50:15;;;;;;;0.75;0.75;;;15.40;65.30;;;;;;5055416;28;20746;-27
2023/01/31 03:52:58;;;;;;;0.90;0.80;;;15.30;64.60;;;;;;5078582;28;20040;-34
2023/01/31 03:55:30;;;;;;;0.70;0.70;;;15.40;64.60;;;;;;5058682;28;20037;-26
2023/01/31 03:57:55;;;;;;;0.80;0.80;;;15.40;64.60;;;;;;5050873;28;20065;-29
2023/01/31 04:00:21;;;;;;;0.93;0.60;;;15.40;64.40;;;;;;5060840;28;20033;-31
2023/01/31 04:02:49;;;;;;;0.70;0.70;;;15.40;64.60;;;;;;5057023;28;20041;-27
2023/01/31 04:05:17;;;;;;;1.00;0.90;;;15.30;64.50;;;;;;5047664;28;20033;-25
2023/01/31 04:07:43;;;;;;;1.33;0.80;;;15.40;64.50;;;;;;5062951;28;20637;-25
2023/01/31 04:10:14;;;;;;;0.70;0.70;;;15.30;64.40;;;;;;5072674;28;20101;-26
2023/01/31 04:12:40;;;;;;;0.60;0.60;;;15.30;64.50;;;;;;5050766;28;20123;-27
2023/01/31 04:15:06;;;;;;;0.88;0.88;;;15.30;64.40;;;;;;5050206;28;20139;-34
2023/01/31 04:17:32;;;;;;;0.60;0.55;;;15.40;64.30;;;;;;5053291;28;20041;-25
2023/01/31 04:19:58;;;;;;;0.93;0.70;;;15.30;64.30;;;;;;5047516;28;20526;-27
2023/01/31 04:22:23;;;;;;;0.60;0.50;;;15.40;64.30;;;;;;5060633;28;20041;-26
2023/01/31 04:24:49;;;;;;;0.68;0.68;;;15.40;64.30;;;;;;5051157;28;20106;-32
2023/01/31 04:27:15;;;;;;;0.70;0.70;;;15.30;64.30;;;;;;5046849;28;20120;-26
2023/01/31 04:29:40;;;;;;;0.50;0.50;;;15.30;64.40;;;;;;5050681;28;20109;-25
2023/01/31 04:32:06;;;;;;;0.80;0.80;;;15.40;64.20;;;;;;5045677;28;20052;-28
2023/01/31 04:34:31;;;;;;;1.08;0.88;;;15.40;63.90;;;;;;5044400;28;20107;-27
2023/01/31 04:36:57;;;;;;;0.70;0.52;;;15.40;64.00;;;;;;5043549;28;20045;-29
2023/01/31 04:39:22;;;;;;;0.70;0.70;;;15.30;64.10;;;;;;5045589;28;20889;-25
2023/01/31 04:41:48;;;;;;;0.80;0.80;;;15.40;64.20;;;;;;5043133;28;20037;-25
2023/01/31 04:44:15;;;;;;;0.82;0.82;;;15.30;64.10;;;;;;5044030;28;20029;-33
2023/01/31 04:46:41;;;;;;;1.05;0.75;;;15.40;64.20;;;;;;5059259;28;20037;-30
2023/01/31 04:49:06;;;;;;;0.80;0.70;;;15.30;64.20;;;;;;5044180;28;20128;-24
2023/01/31 04:51:32;;;;;;;0.68;0.68;;;15.40;64.10;;;;;;5054761;28;20128;-27
2023/01/31 04:53:57;;;;;;;0.70;0.70;;;15.40;64.10;;;;;;5061807;28;20549;-29
2023/01/31 04:56:23;;;;;;;0.77;0.77;;;15.30;64.10;;;;;;5047283;28;20033;-27
2023/01/31 04:58:49;;;;;;;0.82;0.77;;;15.30;64.40;;;;;;5045683;28;20064;-25
2023/01/31 05:01:14;;;;;;;0.70;0.60;;;15.30;64.40;;;;;;5058150;28;20559;-28
2023/01/31 05:03:40;;;;;;;0.70;0.70;;;15.40;64.20;;;;;;5048522;28;20095;-26
2023/01/31 05:06:05;;;;;;;0.60;0.60;;;15.30;64.20;;;;;;5046826;28;20572;-25
2023/01/31 05:08:31;;;;;;;0.75;0.75;;;15.30;64.00;;;;;;5049183;28;20045;-25
2023/01/31 05:11:00;;;;;;;0.60;0.60;;;15.30;64.20;;;;;;5060325;28;20046;-31
2023/01/31 05:13:26;;;;;;;0.90;0.50;;;15.30;64.10;;;;;;5066455;28;20040;-28
2023/01/31 05:15:52;;;;;;;0.60;0.60;;;15.20;64.60;;;;;;5047883;28;20048;-24
2023/01/31 05:18:18;;;;;;;0.63;0.63;;;15.20;64.70;;;;;;5053788;28;20048;-26
2023/01/31 05:20:43;;;;;;;0.70;0.63;;;15.30;64.30;;;;;;5049135;28;20041;-26
2023/01/31 05:23:09;;;;;;;0.50;0.50;;;15.30;64.00;;;;;;5051042;28;20575;-31
2023/01/31 05:25:35;;;;;;;0.52;0.50;;;15.30;64.30;;;;;;5054913;28;20067;-25
2023/01/31 05:28:01;;;;;;;0.80;0.70;;;15.20;64.40;;;;;;5048618;28;20037;-28
2023/01/31 05:30:27;;;;;;;0.70;0.68;;;15.20;64.30;;;;;;5048108;28;20053;-28
2023/01/31 05:32:53;;;;;;;0.50;0.50;;;15.30;64.20;;;;;;5054317;28;20053;-28
2023/01/31 05:35:18;;;;;;;0.68;0.68;;;15.30;64.00;;;;;;5062519;28;20462;-28
2023/01/31 05:37:45;;;;;;;0.60;0.50;;;15.20;64.40;;;;;;5066376;28;20144;-26
2023/01/31 05:40:15;;;;;;;0.52;0.43;;;15.20;65.10;;;;;;5060938;28;20045;-27
2023/01/31 05:42:41;;;;;;;0.40;0.40;;;15.10;64.60;;;;;;5054982;28;20554;-24
2023/01/31 05:45:08;;;;;;;0.98;0.60;;;15.20;64.60;;;;;;5062100;28;20044;-24
2023/01/31 05:47:33;;;;;;;0.60;0.50;;;15.20;64.40;;;;;;5065048;28;20094;-26
2023/01/31 05:49:59;;;;;;;0.45;0.40;;;15.20;64.40;;;;;;5066787;28;21994;-29
2023/01/31 05:52:25;;;;;;;0.95;0.50;;;15.20;64.40;;;;;;5062308;28;20132;-27
2023/01/31 05:54:50;;;;;;;0.52;0.50;;;15.30;64.30;;;;;;5063498;28;20094;-29
2023/01/31 05:57:16;;;;;;;0.55;0.55;;;15.20;64.20;;;;;;5064948;28;20045;-32
2023/01/31 05:59:42;;;;;;;0.57;0.52;;;15.20;64.30;;;;;;5060418;28;20040;-28
2023/01/31 06:02:10;;;;;;;0.40;0.40;;;15.20;64.40;;;;;;5046548;28;20059;-28
2023/01/31 06:04:36;;;;;;;0.40;0.40;;;15.10;64.50;;;;;;5063291;28;20036;-26
2023/01/31 06:07:01;;;;;;;0.40;0.40;;;15.10;64.60;;;;;;5046197;28;20057;-33
2023/01/31 06:09:27;;;;;;;0.40;0.40;;;15.20;64.50;;;;;;5048699;28;20090;-26
2023/01/31 06:11:52;;;;;;;0.60;0.60;;;15.10;64.50;;;;;;5047686;28;20120;-26
2023/01/31 06:14:18;;;;;;;0.32;0.32;;;15.20;64.20;;;;;;5049374;28;20037;-30
2023/01/31 06:16:44;;;;;;;0.95;0.60;;;15.20;64.40;;;;;;5043989;28;20148;-30
2023/01/31 06:19:09;;;;;;;0.50;0.50;;;15.10;64.40;;;;;;5048758;28;20075;-28
2023/01/31 06:21:35;;;;;;;0.45;0.45;;;15.10;64.60;;;;;;5045083;28;20055;-25
2023/01/31 06:24:01;;;;;;;0.77;0.50;;;15.10;64.60;;;;;;5045874;28;20057;-25
2023/01/31 06:26:26;;;;;;;0.47;0.47;;;15.00;64.70;;;;;;5045595;28;20052;-26
2023/01/31 06:28:52;;;;;;;0.50;0.50;;;15.10;64.60;;;;;;5047151;28;20110;-25
2023/01/31 06:31:18;;;;;;;0.82;0.73;;;15.10;64.50;;;;;;5046746;28;20531;-26
2023/01/31 06:33:43;;;;;;;0.45;0.45;;;15.10;64.60;;;;;;5043260;28;20587;-28
2023/01/31 06:36:09;;;;;;;0.85;0.73;;;15.00;64.60;;;;;;5046909;28;20045;-26
2023/01/31 06:38:34;;;;;;;0.35;0.32;;;15.10;64.50;;;;;;5045950;28;20655;-14
2023/01/31 06:41:00;;;;;;;0.45;0.45;;;15.10;64.40;;;;;;5045503;28;20053;-24
2023/01/31 06:43:26;;;;;;;0.60;0.50;;;15.10;64.40;;;;;;5058009;28;20453;-28
2023/01/31 06:45:51;;;;;;;0.50;0.50;;;15.10;64.30;;;;;;5053192;28;20064;-27
2023/01/31 06:48:18;;;;;;;0.70;0.50;;;15.10;64.40;;;;;;5044498;28;20503;-24
2023/01/31 06:50:44;;;;;;;0.65;0.65;;;15.10;64.40;;;;;;5046492;28;20044;-26
2023/01/31 06:53:09;;;;;;;0.80;0.50;;;15.10;64.40;;;;;;5063763;28;20099;-26
2023/01/31 06:55:35;;;;;;;0.73;0.50;;;15.00;64.60;;;;;;5053027;28;20051;-25
2023/01/31 06:58:01;;;;;;;0.57;0.47;;;15.10;64.50;;;;;;5052453;28;20053;-29
2023/01/31 07:00:26;;;;;;;0.40;0.40;;;15.00;64.60;;;;;;5044692;28;20486;-28
2023/01/31 07:02:52;;;;;;;0.50;0.40;;;15.00;64.40;;;;;;5041127;28;20124;-28
2023/01/31 07:05:18;;;;;;;0.50;0.50;;;15.10;64.40;;;;;;5036742;28;20408;-32
2023/01/31 07:07:44;;;;;;;1.70;0.50;;;15.20;64.00;;;;;;5044204;28;20144;-26
2023/01/31 07:10:10;;;;;;;0.47;0.47;;;15.10;64.30;;;;;;5074243;28;20483;-27
2023/01/31 07:12:36;;;;;;;0.30;0.30;;;15.10;64.30;;;;;;5064109;28;20056;-27
2023/01/31 07:15:01;;;;;;;0.50;0.50;;;15.20;64.30;;;;;;5048720;28;20051;-29
2023/01/31 07:17:27;;;;;;;0.43;0.43;;;15.20;64.40;;;;;;5043090;28;20080;-29
2023/01/31 07:19:53;;;;;;;0.68;0.47;;;15.20;64.50;;;;;;5042893;28;20120;-27
2023/01/31 07:22:18;;;;;;;1.85;0.40;;;15.20;64.40;;;;;;5043540;28;20400;-26
2023/01/31 07:24:44;;;;;;;0.57;0.57;;;15.20;64.70;;;;;;5043594;28;20045;-25
2023/01/31 07:27:12;;;;;;;1.88;0.50;;;15.20;64.90;;;;;;5040514;28;20044;-26
2023/01/31 07:29:37;;;;;;;0.77;0.50;;;15.20;65.00;;;;;;5044875;28;20048;-26
2023/01/31 07:32:04;;;;;;;0.98;0.57;;;15.30;64.80;;;;;;5064786;28;20388;-26
2023/01/31 07:34:30;;;;;;;0.60;0.60;;;15.30;64.60;;;;;;5062808;28;20045;-30
2023/01/31 07:36:55;;;;;;;1.13;0.70;;;15.30;64.50;;;;;;5045797;28;20122;-27
2023/01/31 07:39:21;;;;;;;0.80;0.80;;;15.30;64.80;;;;;;5044660;28;20032;-28
2023/01/31 07:41:46;;;;;;;0.85;0.80;;;15.20;64.80;;;;;;5058803;28;20056;-28
2023/01/31 07:44:12;;;;;;;0.52;0.50;;;15.20;64.80;;;;;;5047091;28;20496;-28
2023/01/31 07:46:39;;;;;;;0.88;0.65;;;15.20;64.80;;;;;;5042317;28;20049;-32
2023/01/31 07:49:04;;;;;;;1.20;1.00;;;15.20;65.00;;;;;;5045509;28;20043;-28
2023/01/31 07:51:30;;;;;;;1.25;0.70;;;15.20;65.00;;;;;;5051058;28;20036;-27
2023/01/31 07:53:55;;;;;;;0.90;0.70;;;15.20;64.90;;;;;;5055346;28;20236;-34
2023/01/31 07:56:21;;;;;;;0.82;0.52;;;15.10;65.00;;;;;;5051502;28;20033;-35
2023/01/31 07:58:47;;;;;;;0.60;0.50;;;15.10;65.00;;;;;;5044736;28;20225;-29
2023/01/31 08:03:58;;;;;;;;;;;15.00;65.30;;;;;;5061866;28;20093;-31
2023/01/31 08:06:23;;;;;;;0.57;0.57;;;15.10;65.10;;;;;;5051261;28;19916;-27
2023/01/31 08:08:49;;;;;;;1.15;0.60;;;15.10;65.20;;;;;;5045830;28;20037;-29
2023/01/31 08:11:14;;;;;;;1.08;0.50;;;15.10;65.10;;;;;;5043266;28;20397;-30
2023/01/31 08:13:40;;;;;;;0.75;0.55;;;15.00;65.40;;;;;;5060152;28;20051;-30
2023/01/31 08:16:08;;;;;;;2.15;0.50;;;15.00;65.50;;;;;;5044865;28;20049;-28
2023/01/31 08:18:33;;;;;;;1.60;0.70;;;14.90;65.60;;;;;;5053011;28;20075;-31
2023/01/31 08:20:59;;;;;;;0.70;0.70;;;14.90;65.70;;;;;;5053794;28;20138;-30
2023/01/31 08:23:26;;;;;;;0.50;0.50;;;14.90;65.60;;;;;;5046731;28;20514;-26
2023/01/31 08:25:52;;;;;;;0.50;0.50;;;14.90;65.60;;;;;;5043612;28;20569;-29
2023/01/31 08:28:17;;;;;;;0.95;0.60;;;15.00;65.50;;;;;;5049326;28;20045;-28
2023/01/31 08:30:43;;;;;;;1.42;0.88;;;15.00;65.50;;;;;;5064075;28;20057;-36
2023/01/31 08:33:09;;;;;;;0.70;0.47;;;15.00;65.40;;;;;;5057213;28;20389;-27
2023/01/31 08:35:35;;;;;;;0.57;0.38;;;15.10;65.10;;;;;;5047136;28;20033;-33
2023/01/31 08:38:00;;;;;;;1.05;0.60;;;15.00;65.10;;;;;;5050698;28;20053;-29
2023/01/31 08:40:26;;;;;;;1.05;0.60;;;15.00;65.30;;;;;;5048698;28;20496;-27
2023/01/31 08:42:55;;;;;;;0.52;0.40;;;14.90;65.40;;;;;;5048757;28;20051;-29
2023/01/31 08:45:21;;;;;;;0.73;0.50;;;15.00;65.50;;;;;;5049346;28;20110;-29
2023/01/31 08:47:47;;;;;;;0.55;0.50;;;15.00;65.50;;;;;;5049331;28;20462;-27
2023/01/31 08:50:12;;;;;;;0.30;0.30;;;15.00;65.30;;;;;;5047036;28;20090;-29
2023/01/31 08:52:38;;;;;;;0.65;0.47;;;15.00;65.20;;;;;;5049136;28;20404;-28
2023/01/31 08:55:05;;;;;;;0.80;0.57;;;15.00;65.40;;;;;;5049729;28;20056;-30
2023/01/31 08:57:30;;;;;;;0.70;0.60;;;15.00;65.10;;;;;;5069218;28;20053;-29
2023/01/31 08:59:56;;;;;;;0.65;0.40;;;15.00;65.20;;;;;;5066303;28;20054;-29
2023/01/31 09:02:22;;;;;;;0.75;0.75;;;15.00;65.20;;;;;;5047890;28;20067;-33
2023/01/31 09:04:48;;;;;;;1.02;0.77;;;15.00;65.30;;;;;;5044840;28;20462;-30
2023/01/31 09:07:14;;;;;;;0.50;0.50;;;15.10;65.10;;;;;;5049728;28;20075;-31
2023/01/31 09:09:39;;;;;;;0.73;0.63;;;15.00;65.20;;;;;;5057516;28;20534;-33
2023/01/31 09:12:05;;;;;;;0.93;0.50;;;14.90;65.40;;;;;;5061339;28;20124;-29
2023/01/31 09:14:31;;;;;;;1.38;0.80;;;14.90;65.20;;;;;;5053968;28;20044;-25
2023/01/31 09:16:56;;;;;;;0.77;0.60;;;15.00;65.10;;;;;;5065949;28;20048;-31
2023/01/31 09:19:22;;;;;;;0.55;0.50;;;14.90;65.20;;;;;;5069509;28;20507;-30
2023/01/31 09:21:48;;;;;;;0.40;0.40;;;15.00;65.30;;;;;;5067636;28;20037;-28
2023/01/31 09:24:13;;;;;;;1.20;0.93;;;14.90;65.30;;;;;;5055382;28;20060;-28
2023/01/31 09:26:39;;;;;;;0.65;0.57;;;14.90;65.10;;;;;;5066351;28;20084;-28
2023/01/31 09:29:05;;;;;;;0.63;0.55;;;14.90;65.20;;;;;;5052937;28;20060;-26
2023/01/31 09:31:30;;;;;;;0.65;0.43;;;15.00;65.10;;;;;;5054258;28;20139;-27
2023/01/31 09:33:56;;;;;;;0.50;0.50;;;15.00;65.00;;;;;;5054642;28;20048;-28
2023/01/31 09:36:22;;;;;;;0.60;0.50;;;15.00;64.80;;;;;;5048021;28;20041;-36
2023/01/31 09:38:53;;;;;;;0.68;0.50;;;15.20;64.50;;;;;;5062929;28;20048;-27
2023/01/31 09:41:40;;;;;;;0.60;0.40;;;15.20;64.60;;;;;;5053300;28;20033;-28
2023/01/31 09:44:11;;;;;;;1.10;0.60;;;15.20;64.40;;;;;;5065005;28;20175;-30
2023/01/31 09:46:41;;;;;;;0.50;0.50;;;15.30;64.30;;;;;;5062127;28;20120;-32
2023/01/31 09:49:09;;;;;;;0.47;0.40;;;15.20;64.00;;;;;;5046910;28;20043;-29
2023/01/31 09:51:36;;;;;;;0.57;0.47;;;15.30;64.10;;;;;;5065589;28;20451;-29
2023/01/31 09:54:02;;;;;;;0.50;0.50;;;15.20;64.00;;;;;;5051408;28;20113;-26
2023/01/31 09:56:40;;;;;;;0.77;0.50;;;15.20;64.30;;;;;;5064015;28;20045;-27
2023/01/31 09:59:05;;;;;;;0.47;0.40;;;15.20;64.10;;;;;;5054761;28;20044;-30
2023/01/31 10:01:58;;;;;;;0.30;0.30;;;15.20;64.00;;;;;;5052607;28;20075;-32
2023/01/31 10:04:56;;;;;;;0.65;0.43;;;15.20;64.00;;;;;;5051346;28;20044;-31
2023/01/31 10:07:30;;;;;;;1.30;0.55;;;15.20;64.20;;;;;;5048577;28;20029;-39
2023/01/31 10:10:04;;;;;;;0.60;0.40;;;15.20;64.10;;;;;;5028260;28;20053;-26
2023/01/31 10:12:40;;;;;;;0.40;0.40;;;15.20;64.20;;;;;;5051548;28;20133;-28
2023/01/31 10:15:20;;;;;;;0.40;0.32;;;15.20;64.40;;;;;;5059408;28;20048;-30
2023/01/31 10:17:48;;;;;;;0.77;0.60;;;15.20;64.40;;;;;;5063039;28;20044;-32
2023/01/31 10:20:41;;;;;;;1.50;0.52;;;15.30;64.10;;;;;;5064675;28;20045;-28
2023/01/31 10:23:30;;;;;;;0.40;0.40;;;15.20;64.40;;;;;;5058319;28;20521;-28
2023/01/31 10:26:00;;;;;;;0.40;0.30;;;15.30;64.30;;;;;;5056189;28;20037;-29
2023/01/31 10:28:59;;;;;;;0.52;0.50;;;15.40;64.20;;;;;;5050383;28;20056;-29
2023/01/31 10:31:45;;;;;;;0.47;0.30;;;15.40;64.10;;;;;;5065994;28;20511;-30
2023/01/31 10:34:17;;;;;;;0.50;0.40;;;15.40;64.00;;;;;;5067257;28;20053;-28
2023/01/31 10:36:55;;;;;;;0.60;0.50;;;15.50;63.80;;;;;;5050016;28;20203;-27
2023/01/31 10:39:25;;;;;;;0.65;0.40;;;15.50;63.90;;;;;;5045418;28;20079;-33
2023/01/31 10:41:53;;;;;;;0.57;0.40;;;15.40;63.80;;;;;;5052966;28;20178;-28
2023/01/31 10:44:41;;;;;;;0.32;0.30;;;15.40;63.90;;;;;;5063965;28;20135;-30
2023/01/31 10:47:16;;;;;;;0.55;0.40;;;15.50;63.80;;;;;;5053514;28;20048;-28
2023/01/31 10:49:46;;;;;;;0.40;0.30;;;15.60;63.60;;;;;;5040948;28;20045;-33
2023/01/31 10:52:15;;;;;;;0.50;0.50;;;15.60;63.50;;;;;;5047384;28;20087;-36
2023/01/31 10:54:59;;;;;;;1.02;0.40;;;15.50;63.60;;;;;;5045467;28;20043;-30
2023/01/31 10:57:24;;;;;;;0.40;0.40;;;15.60;63.60;;;;;;5052445;28;20055;-33
2023/01/31 10:59:50;;;;;;;1.95;0.50;;;15.60;63.50;;;;;;5047595;28;20040;-31
2023/01/31 11:02:23;;;;;;;0.85;0.40;;;15.60;63.30;;;;;;5055432;28;20043;-25
2023/01/31 11:04:50;;;;;;;0.30;0.30;;;15.60;63.40;;;;;;5063570;28;20502;-27
2023/01/31 11:07:16;;;;;;;0.60;0.50;;;15.60;63.30;;;;;;5044833;28;20124;-29
2023/01/31 11:09:50;;;;;;;0.60;0.57;;;15.70;63.20;;;;;;5047528;28;20325;-27
2023/01/31 11:12:16;;;;;;;1.02;0.60;;;15.70;63.20;;;;;;5046236;28;20045;-30
2023/01/31 11:14:41;;;;;;;0.80;0.60;;;15.70;63.20;;;;;;5045702;28;20102;-30
2023/01/31 11:17:15;;;;;;;0.50;0.40;;;15.70;63.20;;;;;;5046436;28;20530;-26
2023/01/31 11:19:54;;;;;;;0.57;0.37;;;15.70;63.20;;;;;;5042723;28;20044;-31
2023/01/31 11:22:23;;;;;;;0.60;0.40;;;15.70;63.10;;;;;;5059176;28;20288;-27
2023/01/31 11:24:49;;;;;;;0.68;0.47;;;15.70;63.00;;;;;;5050353;28;20500;-29
2023/01/31 11:27:32;;;;;;;0.60;0.30;;;15.80;63.00;;;;;;5063001;28;20052;-30
2023/01/31 11:29:57;;;;;;;0.82;0.50;;;15.80;62.80;;;;;;5029925;28;20047;-28
2023/01/31 11:32:31;;;;;;;0.47;0.40;;;15.80;62.80;;;;;;5047914;28;20048;-33
2023/01/31 11:35:04;;;;;;;1.23;0.60;;;15.80;62.80;;;;;;5045083;28;20040;-29
2023/01/31 11:37:30;;;;;;;0.47;0.40;;;15.70;62.90;;;;;;5065821;28;20048;-32
2023/01/31 11:39:58;;;;;;;0.32;0.32;;;15.80;62.90;;;;;;5045562;28;20160;-27
2023/01/31 11:42:23;;;;;;;0.70;0.30;;;15.70;62.80;;;;;;5061583;28;20053;-33
2023/01/31 11:45:03;;;;;;;0.55;0.35;;;15.70;63.00;;;;;;5045135;28;20167;-31
2023/01/31 11:47:38;;;;;;;0.40;0.40;;;15.70;62.90;;;;;;5056804;28;20036;-30
2023/01/31 11:50:04;;;;;;;0.47;0.38;;;15.70;63.00;;;;;;5061620;28;20044;-30
2023/01/31 11:52:33;;;;;;;0.40;0.30;;;15.70;63.20;;;;;;5051116;28;20033;-32
2023/01/31 11:55:04;;;;;;;0.68;0.40;;;15.70;63.10;;;;;;5055640;28;20040;-26
2023/01/31 11:57:32;;;;;;;0.63;0.40;;;15.70;63.20;;;;;;5052079;28;20045;-29
2023/01/31 11:59:58;;;;;;;0.60;0.60;;;15.70;63.00;;;;;;5044788;28;20071;-28
2023/01/31 12:02:30;;;;;;;0.43;0.40;;;15.70;63.00;;;;;;5059344;28;20040;-28
2023/01/31 12:04:56;;;;;;;0.88;0.50;;;15.70;63.00;;;;;;5058988;28;20962;-28
2023/01/31 12:07:28;;;;;;;0.40;0.30;;;15.70;63.00;;;;;;5061057;28;20560;-26
2023/01/31 12:09:53;;;;;;;0.65;0.60;;;15.70;63.00;;;;;;5066142;28;20111;-29
2023/01/31 12:12:24;;;;;;;0.60;0.60;;;15.70;63.00;;;;;;5071153;28;20503;-28
2023/01/31 12:14:49;;;;;;;0.40;0.40;;;15.70;63.00;;;;;;5071757;28;20041;-30
2023/01/31 12:17:16;;;;;;;0.60;0.60;;;15.70;63.00;;;;;;5051592;28;20051;-29
2023/01/31 12:20:02;;;;;;;0.80;0.40;;;15.70;62.90;;;;;;5051565;28;20507;-26
2023/01/31 12:23:01;;;;;;;0.57;0.40;;;15.70;63.00;;;;;;5072385;28;20079;-29
2023/01/31 12:25:51;;;;;;;0.45;0.40;;;15.70;62.90;;;;;;5059180;28;20044;-30
2023/01/31 12:28:48;;;;;;;0.38;0.35;;;15.60;63.00;;;;;;5061990;28;20033;-30
2023/01/31 12:31:54;;;;;;;0.40;0.40;;;15.70;63.20;;;;;;5062434;28;20058;-31
2023/01/31 12:34:34;;;;;;;0.85;0.50;;;15.70;63.10;;;;;;5082072;28;20140;-33
2023/01/31 12:37:24;;;;;;;0.30;0.20;;;15.70;63.00;;;;;;5054640;28;20040;-29
2023/01/31 12:40:12;;;;;;;0.40;0.40;;;15.70;63.00;;;;;;5068558;28;20039;-29
2023/01/31 12:42:37;;;;;;;0.40;0.40;;;15.70;63.00;;;;;;5049022;28;20056;-30
2023/01/31 12:45:12;;;;;;;0.50;0.50;;;15.70;63.00;;;;;;5051206;28;20488;-26
2023/01/31 12:48:09;;;;;;;0.55;0.43;;;15.80;62.90;;;;;;5054941;28;20047;-33
2023/01/31 12:50:36;;;;;;;0.65;0.50;;;15.80;62.80;;;;;;5061891;28;20040;-26
2023/01/31 12:53:27;;;;;;;0.55;0.40;;;15.80;62.50;;;;;;5072181;28;20044;-27
2023/01/31 12:56:11;;;;;;;0.28;0.28;;;15.80;62.70;;;;;;5067386;28;20537;-28
2023/01/31 12:59:07;;;;;;;0.40;0.40;;;15.70;62.80;;;;;;5070325;28;20054;-27
2023/01/31 13:01:35;;;;;;;0.45;0.45;;;15.80;63.00;;;;;;5063212;28;20110;-29
2023/01/31 13:04:15;;;;;;;0.30;0.30;;;15.80;62.80;;;;;;5070218;28;20043;-31
2023/01/31 13:06:43;;;;;;;0.30;0.30;;;15.80;62.70;;;;;;4361655;28;10000875;-28
2023/01/31 13:09:14;;;;;;;0.60;0.30;;;15.80;62.70;;;;;;5077896;28;20060;-26